createdAt,value
2023-02-07T00:01:25.572Z,66.81
2023-02-07T00:03:55.307Z,66.70
2023-02-07T00:06:28.733Z,66.70
2023-02-07T00:08:58.633Z,66.87
2023-02-07T00:11:26.939Z,67.05
2023-02-07T00:13:56.204Z,67.13
2023-02-07T00:16:26.311Z,67.29
2023-02-07T00:18:54.922Z,67.46
2023-02-07T00:21:24.016Z,67.54
2023-02-07T00:23:52.845Z,67.52
2023-02-07T00:26:24.362Z,67.54
2023-02-07T00:28:53.456Z,67.48
2023-02-07T00:31:26.424Z,67.41
2023-02-07T00:34:01.815Z,67.42
2023-02-07T00:36:32.304Z,67.60
2023-02-07T00:39:02.237Z,67.63
2023-02-07T00:41:31.931Z,67.98
2023-02-07T00:44:01.235Z,71.12
2023-02-07T00:46:31.134Z,72.20
2023-02-07T00:49:01.344Z,72.65
2023-02-07T00:51:30.255Z,72.95
2023-02-07T00:53:59.838Z,73.19
2023-02-07T00:56:29.282Z,73.39
2023-02-07T00:58:59.489Z,73.67
2023-02-07T01:01:27.759Z,73.89
2023-02-07T01:03:58.548Z,74.10
2023-02-07T01:06:28.128Z,74.24
2023-02-07T01:08:59.351Z,74.65
2023-02-07T01:11:29.916Z,74.66
2023-02-07T01:14:00.734Z,74.98
2023-02-07T01:16:31.417Z,75.27
2023-02-07T01:19:01.547Z,75.33
2023-02-07T01:21:30.243Z,75.49
2023-02-07T01:23:58.789Z,73.52
2023-02-07T01:26:26.928Z,71.44
2023-02-07T01:28:55.675Z,70.96
2023-02-07T01:31:23.930Z,70.85
2023-02-07T01:33:59.096Z,70.74
2023-02-07T01:36:28.403Z,70.65
2023-02-07T01:38:58.809Z,70.74
2023-02-07T01:41:28.496Z,70.65
2023-02-07T01:43:58.848Z,70.69
2023-02-07T01:46:27.438Z,70.70
2023-02-07T01:48:57.759Z,70.70
2023-02-07T01:51:25.726Z,70.68
2023-02-07T01:53:56.509Z,70.64
2023-02-07T01:56:31.515Z,70.49
2023-02-07T01:59:02.454Z,70.37
2023-02-07T02:01:32.657Z,70.07
2023-02-07T02:04:00.653Z,70.06
2023-02-07T02:06:30.653Z,70.16
2023-02-07T02:09:00.152Z,70.21
2023-02-07T02:12:06.856Z,70.21
2023-02-07T02:15:03.116Z,70.35
2023-02-07T02:18:02.915Z,70.43
2023-02-07T02:20:54.158Z,70.21
2023-02-07T02:23:39.876Z,70.19
2023-02-07T02:26:20.316Z,69.97
2023-02-07T02:29:13.292Z,69.75
2023-02-07T02:32:14.812Z,69.90
2023-02-07T02:34:54.100Z,70.12
2023-02-07T02:37:29.786Z,70.18
2023-02-07T02:40:22.584Z,69.95
2023-02-07T02:42:59.133Z,69.72
2023-02-07T02:45:36.902Z,69.61
2023-02-07T02:48:05.779Z,69.50
2023-02-07T02:50:34.417Z,69.34
2023-02-07T02:53:02.551Z,69.28
2023-02-07T02:56:04.371Z,69.26
2023-02-07T02:58:54.930Z,69.07
2023-02-07T03:01:56.312Z,69.05
2023-02-07T03:04:46.140Z,69.19
2023-02-07T03:07:21.814Z,69.14
2023-02-07T03:10:03.048Z,69.20
2023-02-07T03:12:55.940Z,69.38
2023-02-07T03:15:37.923Z,69.17
2023-02-07T03:18:14.413Z,69.29
2023-02-07T03:20:47.974Z,69.22
2023-02-07T03:23:16.711Z,69.24
2023-02-07T03:25:44.646Z,69.20
2023-02-07T03:28:12.695Z,69.14
2023-02-07T03:30:43.117Z,69.12
2023-02-07T03:33:12.128Z,68.89
2023-02-07T03:35:53.506Z,68.92
2023-02-07T03:38:21.948Z,68.94
2023-02-07T03:40:53.667Z,69.27
2023-02-07T03:43:26.852Z,69.13
2023-02-07T03:45:55.645Z,69.07
2023-02-07T03:48:24.348Z,68.86
2023-02-07T03:50:53.091Z,68.80
2023-02-07T03:53:21.132Z,68.88
2023-02-07T03:55:49.261Z,68.90
2023-02-07T03:58:17.270Z,68.67
2023-02-07T04:00:45.450Z,68.40
2023-02-07T04:03:13.849Z,68.38
2023-02-07T04:05:43.950Z,68.36
2023-02-07T04:08:12.214Z,68.22
2023-02-07T04:10:40.406Z,68.31
2023-02-07T04:13:13.283Z,68.55
2023-02-07T04:15:41.426Z,68.65
2023-02-07T04:18:10.041Z,68.75
2023-02-07T04:20:38.705Z,68.65
2023-02-07T04:23:06.735Z,68.25
2023-02-07T04:25:35.538Z,68.07
2023-02-07T04:28:03.599Z,68.04
2023-02-07T04:30:33.429Z,67.90
2023-02-07T04:33:01.412Z,67.60
2023-02-07T04:35:29.357Z,67.61
2023-02-07T04:37:57.475Z,67.75
2023-02-07T04:40:25.535Z,67.87
2023-02-07T04:42:53.524Z,67.87
